sensor_id;sensor_type;location;lat;lon;timestamp;pressure;altitude;pressure_sealevel;temperature;humidity
55490;BME280;44029;52.956;4.772;2023-07-13T00:00:27;101302.66;;;21.03;100.00
55490;BME280;44029;52.956;4.772;2023-07-13T00:02:53;101308.00;;;21.28;100.00
55490;BME280;44029;52.956;4.772;2023-07-13T00:05:22;101300.88;;;21.35;100.00
55490;BME280;44029;52.956;4.772;2023-07-13T00:07:49;101298.41;;;21.48;100.00
55490;BME280;44029;52.956;4.772;2023-07-13T00:10:15;101305.34;;;21.09;100.00
55490;BME280;44029;52.956;4.772;2023-07-13T00:12:40;101304.88;;;21.57;100.00
55490;BME280;44029;52.956;4.772;2023-07-13T00:15:13;101304.81;;;21.85;100.00
55490;BME280;44029;52.956;4.772;2023-07-13T00:17:39;101297.78;;;21.51;100.00
55490;BME280;44029;52.956;4.772;2023-07-13T00:20:05;101304.16;;;21.37;100.00
55490;BME280;44029;52.956;4.772;2023-07-13T00:22:32;101304.06;;;21.56;100.00
55490;BME280;44029;52.956;4.772;2023-07-13T00:24:57;101302.22;;;21.38;100.00
55490;BME280;44029;52.956;4.772;2023-07-13T00:27:23;101309.13;;;21.54;100.00
55490;BME280;44029;52.956;4.772;2023-07-13T00:29:49;101302.94;;;21.30;100.00
55490;BME280;44029;52.956;4.772;2023-07-13T00:32:14;101311.28;;;21.30;100.00
55490;BME280;44029;52.956;4.772;2023-07-13T00:34:40;101315.03;;;21.53;100.00
55490;BME280;44029;52.956;4.772;2023-07-13T00:37:06;101312.50;;;21.65;100.00
55490;BME280;44029;52.956;4.772;2023-07-13T00:39:33;101306.38;;;21.27;100.00
55490;BME280;44029;52.956;4.772;2023-07-13T00:41:59;101310.97;;;21.59;100.00
55490;BME280;44029;52.956;4.772;2023-07-13T00:44:25;101304.06;;;21.42;100.00
55490;BME280;44029;52.956;4.772;2023-07-13T00:46:51;101301.38;;;21.37;100.00
55490;BME280;44029;52.956;4.772;2023-07-13T00:49:19;101300.94;;;21.58;100.00
55490;BME280;44029;52.956;4.772;2023-07-13T00:51:51;101307.41;;;21.81;100.00
55490;BME280;44029;52.956;4.772;2023-07-13T00:54:22;101292.50;;;21.86;100.00
55490;BME280;44029;52.956;4.772;2023-07-13T00:56:50;101304.06;;;21.42;100.00
55490;BME280;44029;52.956;4.772;2023-07-13T00:59:18;101300.13;;;21.43;100.00
55490;BME280;44029;52.956;4.772;2023-07-13T01:01:45;101301.41;;;21.23;100.00
55490;BME280;44029;52.956;4.772;2023-07-13T01:04:11;101303.69;;;21.21;100.00
55490;BME280;44029;52.956;4.772;2023-07-13T01:06:37;101300.97;;;21.30;100.00
55490;BME280;44029;52.956;4.772;2023-07-13T01:09:04;101303.38;;;20.95;100.00
55490;BME280;44029;52.956;4.772;2023-07-13T01:11:31;101302.03;;;20.79;100.00
55490;BME280;44029;52.956;4.772;2023-07-13T01:13:57;101307.41;;;21.03;100.00
55490;BME280;44029;52.956;4.772;2023-07-13T01:16:27;101312.53;;;21.37;100.00
55490;BME280;44029;52.956;4.772;2023-07-13T01:18:55;101310.28;;;21.12;100.00
55490;BME280;44029;52.956;4.772;2023-07-13T01:21:25;101305.75;;;21.16;100.00
55490;BME280;44029;52.956;4.772;2023-07-13T01:23:51;101307.19;;;21.13;100.00
55490;BME280;44029;52.956;4.772;2023-07-13T01:26:17;101302.88;;;20.93;100.00
55490;BME280;44029;52.956;4.772;2023-07-13T01:28:43;101293.38;;;20.94;100.00
55490;BME280;44029;52.956;4.772;2023-07-13T01:31:09;101293.78;;;21.01;100.00
55490;BME280;44029;52.956;4.772;2023-07-13T01:33:37;101300.41;;;20.92;100.00
55490;BME280;44029;52.956;4.772;2023-07-13T01:36:08;101297.88;;;21.32;100.00
55490;BME280;44029;52.956;4.772;2023-07-13T01:38:35;101302.22;;;21.24;100.00
55490;BME280;44029;52.956;4.772;2023-07-13T01:41:01;101304.41;;;21.13;100.00
55490;BME280;44029;52.956;4.772;2023-07-13T01:43:27;101302.44;;;21.00;100.00
55490;BME280;44029;52.956;4.772;2023-07-13T01:45:52;101309.25;;;21.21;100.00
55490;BME280;44029;52.956;4.772;2023-07-13T01:48:18;101311.84;;;21.18;100.00
55490;BME280;44029;52.956;4.772;2023-07-13T01:50:44;101302.66;;;21.03;100.00
55490;BME280;44029;52.956;4.772;2023-07-13T01:53:09;101305.34;;;21.09;100.00
55490;BME280;44029;52.956;4.772;2023-07-13T01:55:35;101305.25;;;21.14;100.00
55490;BME280;44029;52.956;4.772;2023-07-13T01:58:01;101304.09;;;21.01;100.00
55490;BME280;44029;52.956;4.772;2023-07-13T02:00:27;101300.38;;;20.78;100.00
55490;BME280;44029;52.956;4.772;2023-07-13T02:02:53;101300.47;;;20.73;100.00
55490;BME280;44029;52.956;4.772;2023-07-13T02:05:18;101301.03;;;21.02;100.00
55490;BME280;44029;52.956;4.772;2023-07-13T02:07:44;101303.47;;;21.04;100.00
55490;BME280;44029;52.956;4.772;2023-07-13T02:10:10;101305.03;;;20.82;100.00
55490;BME280;44029;52.956;4.772;2023-07-13T02:12:36;101311.22;;;20.79;100.00
55490;BME280;44029;52.956;4.772;2023-07-13T02:15:03;101309.34;;;20.89;100.00
55490;BME280;44029;52.956;4.772;2023-07-13T02:17:28;101318.53;;;21.03;100.00
55490;BME280;44029;52.956;4.772;2023-07-13T02:19:54;101315.66;;;20.80;100.00
55490;BME280;44029;52.956;4.772;2023-07-13T02:22:20;101316.25;;;20.91;100.00
55490;BME280;44029;52.956;4.772;2023-07-13T02:24:46;101322.84;;;20.81;100.00
55490;BME280;44029;52.956;4.772;2023-07-13T02:27:11;101320.69;;;20.78;100.00
55490;BME280;44029;52.956;4.772;2023-07-13T02:29:37;101323.28;;;21.16;100.00
55490;BME280;44029;52.956;4.772;2023-07-13T02:32:02;101326.59;;;21.04;100.00
55490;BME280;44029;52.956;4.772;2023-07-13T02:34:28;101324.19;;;21.12;100.00
55490;BME280;44029;52.956;4.772;2023-07-13T02:36:53;101326.91;;;21.03;100.00
55490;BME280;44029;52.956;4.772;2023-07-13T02:39:18;101323.59;;;20.87;100.00
55490;BME280;44029;52.956;4.772;2023-07-13T02:41:44;101330.09;;;20.82;100.00
55490;BME280;44029;52.956;4.772;2023-07-13T02:44:12;101330.72;;;20.93;100.00
55490;BME280;44029;52.956;4.772;2023-07-13T02:46:38;101322.75;;;20.73;100.00
55490;BME280;44029;52.956;4.772;2023-07-13T02:49:04;101327.81;;;20.84;100.00
55490;BME280;44029;52.956;4.772;2023-07-13T02:51:30;101332.16;;;21.04;100.00
55490;BME280;44029;52.956;4.772;2023-07-13T02:53:56;101334.72;;;20.87;100.00
55490;BME280;44029;52.956;4.772;2023-07-13T02:56:26;101333.91;;;21.14;100.00
55490;BME280;44029;52.956;4.772;2023-07-13T02:58:52;101331.44;;;20.99;100.00
55490;BME280;44029;52.956;4.772;2023-07-13T03:01:17;101332.38;;;20.80;100.00
55490;BME280;44029;52.956;4.772;2023-07-13T03:03:45;101338.75;;;20.81;100.00
55490;BME280;44029;52.956;4.772;2023-07-13T03:06:12;101337.13;;;20.94;100.00
55490;BME280;44029;52.956;4.772;2023-07-13T03:08:38;101339.38;;;20.92;100.00
55490;BME280;44029;52.956;4.772;2023-07-13T03:11:09;101341.22;;;20.96;100.00
55490;BME280;44029;52.956;4.772;2023-07-13T03:13:36;101346.59;;;20.79;100.00
55490;BME280;44029;52.956;4.772;2023-07-13T03:16:02;101349.59;;;20.82;100.00
55490;BME280;44029;52.956;4.772;2023-07-13T03:18:28;101346.69;;;20.74;100.00
55490;BME280;44029;52.956;4.772;2023-07-13T03:20:53;101340.28;;;20.87;100.00
55490;BME280;44029;52.956;4.772;2023-07-13T03:23:21;101344.84;;;21.11;100.00
55490;BME280;44029;52.956;4.772;2023-07-13T03:25:47;101345.16;;;21.09;100.00
55490;BME280;44029;52.956;4.772;2023-07-13T03:28:13;101343.06;;;20.73;100.00
55490;BME280;44029;52.956;4.772;2023-07-13T03:30:39;101344.31;;;20.81;100.00
55490;BME280;44029;52.956;4.772;2023-07-13T03:33:04;101351.22;;;20.70;100.00
55490;BME280;44029;52.956;4.772;2023-07-13T03:35:30;101343.06;;;20.87;100.00
55490;BME280;44029;52.956;4.772;2023-07-13T03:37:58;101346.50;;;20.98;100.00
55490;BME280;44029;52.956;4.772;2023-07-13T03:40:24;101351.44;;;20.87;100.00
55490;BME280;44029;52.956;4.772;2023-07-13T03:42:51;101351.44;;;20.87;100.00
55490;BME280;44029;52.956;4.772;2023-07-13T03:45:16;101362.88;;;20.85;100.00
55490;BME280;44029;52.956;4.772;2023-07-13T03:47:42;101354.44;;;20.77;100.00
55490;BME280;44029;52.956;4.772;2023-07-13T03:50:07;101358.88;;;21.33;100.00
55490;BME280;44029;52.956;4.772;2023-07-13T03:52:33;101354.97;;;21.20;100.00
55490;BME280;44029;52.956;4.772;2023-07-13T03:54:58;101363.94;;;21.03;100.00
55490;BME280;44029;52.956;4.772;2023-07-13T03:57:24;101363.34;;;21.48;100.00
55490;BME280;44029;52.956;4.772;2023-07-13T03:59:49;101370.00;;;22.11;100.00
55490;BME280;44029;52.956;4.772;2023-07-13T04:02:15;101363.50;;;22.61;100.00
55490;BME280;44029;52.956;4.772;2023-07-13T04:04:40;101369.78;;;22.44;100.00
55490;BME280;44029;52.956;4.772;2023-07-13T04:07:06;101355.81;;;22.44;100.00
55490;BME280;44029;52.956;4.772;2023-07-13T04:09:33;101361.22;;;22.04;100.00
55490;BME280;44029;52.956;4.772;2023-07-13T04:11:59;101361.19;;;22.94;100.00
55490;BME280;44029;52.956;4.772;2023-07-13T04:14:24;101361.81;;;22.83;100.00
55490;BME280;44029;52.956;4.772;2023-07-13T04:16:50;101361.22;;;23.34;100.00
55490;BME280;44029;52.956;4.772;2023-07-13T04:19:15;101363.69;;;23.45;100.00
55490;BME280;44029;52.956;4.772;2023-07-13T04:21:41;101361.84;;;23.89;100.00
55490;BME280;44029;52.956;4.772;2023-07-13T04:24:06;101354.53;;;24.75;100.00
55490;BME280;44029;52.956;4.772;2023-07-13T04:26:33;101359.25;;;24.83;100.00
55490;BME280;44029;52.956;4.772;2023-07-13T04:29:02;101359.00;;;24.50;100.00
55490;BME280;44029;52.956;4.772;2023-07-13T04:31:29;101360.38;;;24.26;100.00
55490;BME280;44029;52.956;4.772;2023-07-13T04:33:54;101362.81;;;24.28;100.00
55490;BME280;44029;52.956;4.772;2023-07-13T04:36:20;101371.22;;;24.02;100.00
55490;BME280;44029;52.956;4.772;2023-07-13T04:38:46;101371.41;;;24.14;100.00
55490;BME280;44029;52.956;4.772;2023-07-13T04:41:12;101370.91;;;23.86;100.00
55490;BME280;44029;52.956;4.772;2023-07-13T04:43:38;101374.50;;;24.30;100.00
55490;BME280;44029;52.956;4.772;2023-07-13T04:46:09;101370.88;;;24.56;100.00
55490;BME280;44029;52.956;4.772;2023-07-13T04:48:36;101378.16;;;24.30;100.00
55490;BME280;44029;52.956;4.772;2023-07-13T04:51:01;101377.81;;;24.15;100.00
55490;BME280;44029;52.956;4.772;2023-07-13T04:53:28;101372.53;;;24.22;100.00
55490;BME280;44029;52.956;4.772;2023-07-13T04:55:53;101381.06;;;24.51;100.00
55490;BME280;44029;52.956;4.772;2023-07-13T04:58:19;101382.91;;;24.12;100.00
55490;BME280;44029;52.956;4.772;2023-07-13T05:00:44;101383.41;;;24.15;100.00
55490;BME280;44029;52.956;4.772;2023-07-13T05:03:10;101384.75;;;24.17;100.00
55490;BME280;44029;52.956;4.772;2023-07-13T05:05:35;101385.06;;;24.33;100.00
55490;BME280;44029;52.956;4.772;2023-07-13T05:08:01;101396.91;;;24.04;100.00
55490;BME280;44029;52.956;4.772;2023-07-13T05:10:27;101394.88;;;23.69;100.00
55490;BME280;44029;52.956;4.772;2023-07-13T05:12:52;101396.25;;;23.81;100.00
55490;BME280;44029;52.956;4.772;2023-07-13T05:15:20;101399.72;;;24.04;100.00
55490;BME280;44029;52.956;4.772;2023-07-13T05:17:47;101404.34;;;24.08;100.00
55490;BME280;44029;52.956;4.772;2023-07-13T05:20:13;101402.66;;;24.42;100.00
55490;BME280;44029;52.956;4.772;2023-07-13T05:22:38;101412.91;;;24.12;100.00
55490;BME280;44029;52.956;4.772;2023-07-13T05:25:05;101414.53;;;24.22;100.00
55490;BME280;44029;52.956;4.772;2023-07-13T05:27:31;101413.47;;;23.65;100.00
55490;BME280;44029;52.956;4.772;2023-07-13T05:29:56;101414.59;;;23.64;100.00
55490;BME280;44029;52.956;4.772;2023-07-13T05:32:22;101424.13;;;23.63;100.00
55490;BME280;44029;52.956;4.772;2023-07-13T05:34:47;101422.78;;;24.01;100.00
55490;BME280;44029;52.956;4.772;2023-07-13T05:37:13;101427.75;;;23.55;100.00
55490;BME280;44029;52.956;4.772;2023-07-13T05:39:38;101429.53;;;23.60;100.00
55490;BME280;44029;52.956;4.772;2023-07-13T05:42:04;101425.56;;;23.43;100.00
55490;BME280;44029;52.956;4.772;2023-07-13T05:44:29;101430.16;;;23.88;100.00
55490;BME280;44029;52.956;4.772;2023-07-13T05:46:55;101429.28;;;23.79;100.00
55490;BME280;44029;52.956;4.772;2023-07-13T05:49:22;101434.91;;;23.87;100.00
55490;BME280;44029;52.956;4.772;2023-07-13T05:51:47;101436.41;;;23.93;100.00
55490;BME280;44029;52.956;4.772;2023-07-13T05:54:13;101436.75;;;24.09;100.00
55490;BME280;44029;52.956;4.772;2023-07-13T05:56:38;101432.63;;;23.81;100.00
55490;BME280;44029;52.956;4.772;2023-07-13T05:59:04;101438.31;;;23.76;100.00
55490;BME280;44029;52.956;4.772;2023-07-13T06:01:29;101445.03;;;24.32;100.00
55490;BME280;44029;52.956;4.772;2023-07-13T06:03:55;101441.81;;;26.73;100.00
55490;BME280;44029;52.956;4.772;2023-07-13T06:06:20;101428.56;;;27.81;100.00
55490;BME280;44029;52.956;4.772;2023-07-13T06:08:46;101435.28;;;28.29;100.00
55490;BME280;44029;52.956;4.772;2023-07-13T06:11:16;101433.69;;;28.16;100.00
55490;BME280;44029;52.956;4.772;2023-07-13T06:13:43;101444.13;;;27.17;100.00
55490;BME280;44029;52.956;4.772;2023-07-13T06:16:08;101441.66;;;27.03;100.00
55490;BME280;44029;52.956;4.772;2023-07-13T06:18:35;101446.00;;;26.67;100.00
55490;BME280;44029;52.956;4.772;2023-07-13T06:21:05;101455.56;;;27.33;100.00
55490;BME280;44029;52.956;4.772;2023-07-13T06:23:31;101456.97;;;25.88;100.00
55490;BME280;44029;52.956;4.772;2023-07-13T06:25:56;101456.19;;;25.79;100.00
55490;BME280;44029;52.956;4.772;2023-07-13T06:28:22;101460.13;;;25.01;100.00
55490;BME280;44029;52.956;4.772;2023-07-13T06:30:47;101464.47;;;24.28;100.00
55490;BME280;44029;52.956;4.772;2023-07-13T06:33:13;101469.03;;;25.03;100.00
55490;BME280;44029;52.956;4.772;2023-07-13T06:35:38;101469.41;;;24.75;100.00
55490;BME280;44029;52.956;4.772;2023-07-13T06:38:04;101472.47;;;25.08;100.00
55490;BME280;44029;52.956;4.772;2023-07-13T06:40:30;101473.69;;;25.46;100.00
55490;BME280;44029;52.956;4.772;2023-07-13T06:42:56;101481.91;;;25.60;100.00
55490;BME280;44029;52.956;4.772;2023-07-13T06:45:23;101480.81;;;27.20;100.00
55490;BME280;44029;52.956;4.772;2023-07-13T06:47:48;101482.56;;;28.08;100.00
55490;BME280;44029;52.956;4.772;2023-07-13T06:50:14;101482.28;;;28.25;100.00
55490;BME280;44029;52.956;4.772;2023-07-13T06:52:40;101488.06;;;27.09;100.00
55490;BME280;44029;52.956;4.772;2023-07-13T06:55:06;101493.25;;;25.25;100.00
55490;BME280;44029;52.956;4.772;2023-07-13T06:57:31;101488.63;;;25.68;100.00
55490;BME280;44029;52.956;4.772;2023-07-13T06:59:57;101493.41;;;27.02;100.00
55490;BME280;44029;52.956;4.772;2023-07-13T07:02:22;101488.25;;;28.77;100.00
55490;BME280;44029;52.956;4.772;2023-07-13T07:04:48;101489.09;;;29.69;100.00
55490;BME280;44029;52.956;4.772;2023-07-13T07:07:13;101487.09;;;29.69;100.00
55490;BME280;44029;52.956;4.772;2023-07-13T07:09:39;101488.38;;;29.88;96.36
55490;BME280;44029;52.956;4.772;2023-07-13T07:12:04;101499.03;;;29.79;97.71
55490;BME280;44029;52.956;4.772;2023-07-13T07:14:31;101502.28;;;28.08;100.00
55490;BME280;44029;52.956;4.772;2023-07-13T07:16:57;101515.53;;;27.25;100.00
55490;BME280;44029;52.956;4.772;2023-07-13T07:19:24;101509.72;;;28.81;100.00
55490;BME280;44029;52.956;4.772;2023-07-13T07:21:49;101503.31;;;29.13;100.00
55490;BME280;44029;52.956;4.772;2023-07-13T07:24:14;101509.03;;;29.60;94.79
55490;BME280;44029;52.956;4.772;2023-07-13T07:26:41;101496.25;;;30.69;88.46
55490;BME280;44029;52.956;4.772;2023-07-13T07:29:06;101505.13;;;29.97;83.96
55490;BME280;44029;52.956;4.772;2023-07-13T07:31:32;101499.94;;;30.34;81.19
55490;BME280;44029;52.956;4.772;2023-07-13T07:33:57;101495.56;;;30.56;76.44
55490;BME280;44029;52.956;4.772;2023-07-13T07:36:22;101512.69;;;29.45;81.94
55490;BME280;44029;52.956;4.772;2023-07-13T07:38:48;101513.53;;;28.08;91.07
55490;BME280;44029;52.956;4.772;2023-07-13T07:41:13;101517.00;;;28.42;91.56
55490;BME280;44029;52.956;4.772;2023-07-13T07:43:39;101511.56;;;27.26;98.49
55490;BME280;44029;52.956;4.772;2023-07-13T07:46:04;101515.59;;;27.49;98.17
55490;BME280;44029;52.956;4.772;2023-07-13T07:48:31;101515.16;;;27.60;99.63
55490;BME280;44029;52.956;4.772;2023-07-13T07:50:56;101505.25;;;27.29;100.00
55490;BME280;44029;52.956;4.772;2023-07-13T07:53:22;101509.69;;;26.96;100.00
55490;BME280;44029;52.956;4.772;2023-07-13T07:55:47;101520.78;;;26.80;100.00
55490;BME280;44029;52.956;4.772;2023-07-13T07:58:13;101509.59;;;26.51;100.00
55490;BME280;44029;52.956;4.772;2023-07-13T08:00:38;101514.81;;;26.61;100.00
55490;BME280;44029;52.956;4.772;2023-07-13T08:03:04;101513.97;;;27.61;100.00
55490;BME280;44029;52.956;4.772;2023-07-13T08:05:29;101509.81;;;28.85;100.00
55490;BME280;44029;52.956;4.772;2023-07-13T08:07:54;101510.75;;;29.33;100.00
55490;BME280;44029;52.956;4.772;2023-07-13T08:10:20;101516.84;;;29.35;100.00
55490;BME280;44029;52.956;4.772;2023-07-13T08:12:46;101511.84;;;29.92;96.28
55490;BME280;44029;52.956;4.772;2023-07-13T08:15:13;101517.44;;;29.73;93.16
55490;BME280;44029;52.956;4.772;2023-07-13T08:17:39;101516.00;;;30.14;91.51
55490;BME280;44029;52.956;4.772;2023-07-13T08:20:05;101519.72;;;30.18;91.69
55490;BME280;44029;52.956;4.772;2023-07-13T08:22:30;101518.72;;;29.91;94.87
55490;BME280;44029;52.956;4.772;2023-07-13T08:24:56;101531.34;;;30.13;92.69
55490;BME280;44029;52.956;4.772;2023-07-13T08:27:23;101527.38;;;29.82;95.33
55490;BME280;44029;52.956;4.772;2023-07-13T08:29:49;101528.72;;;29.73;95.94
55490;BME280;44029;52.956;4.772;2023-07-13T08:32:15;101525.72;;;29.81;94.31
55490;BME280;44029;52.956;4.772;2023-07-13T08:34:40;101524.25;;;29.72;95.65
55490;BME280;44029;52.956;4.772;2023-07-13T08:37:06;101520.78;;;30.10;93.02
55490;BME280;44029;52.956;4.772;2023-07-13T08:39:32;101530.09;;;29.95;90.51
55490;BME280;44029;52.956;4.772;2023-07-13T08:47:10;101539.25;;;28.71;100.00
55490;BME280;44029;52.956;4.772;2023-07-13T08:49:38;101532.53;;;28.76;100.00
55490;BME280;44029;52.956;4.772;2023-07-13T08:52:12;101539.19;;;29.56;100.00
55490;BME280;44029;52.956;4.772;2023-07-13T08:54:45;101529.34;;;30.69;96.60
55490;BME280;44029;52.956;4.772;2023-07-13T08:57:19;101533.25;;;30.44;94.74
55490;BME280;44029;52.956;4.772;2023-07-13T08:59:45;101532.53;;;30.12;96.44
55490;BME280;44029;52.956;4.772;2023-07-13T09:02:25;101542.31;;;29.99;98.46
55490;BME280;44029;52.956;4.772;2023-07-13T09:05:04;101537.34;;;29.32;100.00
55490;BME280;44029;52.956;4.772;2023-07-13T09:10:30;101535.44;;;30.16;98.92
55490;BME280;44029;52.956;4.772;2023-07-13T09:15:50;101534.72;;;29.11;100.00
55490;BME280;44029;52.956;4.772;2023-07-13T09:18:29;101540.09;;;29.60;98.36
55490;BME280;44029;52.956;4.772;2023-07-13T09:21:07;101547.03;;;29.47;100.00
55490;BME280;44029;52.956;4.772;2023-07-13T09:23:34;101539.56;;;29.86;99.53
55490;BME280;44029;52.956;4.772;2023-07-13T09:26:18;101552.44;;;29.84;100.00
55490;BME280;44029;52.956;4.772;2023-07-13T09:28:45;101554.91;;;29.25;100.00
55490;BME280;44029;52.956;4.772;2023-07-13T09:31:34;101556.63;;;29.02;100.00
55490;BME280;44029;52.956;4.772;2023-07-13T09:34:01;101565.66;;;27.89;100.00
55490;BME280;44029;52.956;4.772;2023-07-13T09:36:31;101568.88;;;27.79;100.00
55490;BME280;44029;52.956;4.772;2023-07-13T09:39:11;101572.44;;;27.30;100.00
55490;BME280;44029;52.956;4.772;2023-07-13T09:41:46;101574.91;;;27.11;100.00
55490;BME280;44029;52.956;4.772;2023-07-13T09:44:15;101572.97;;;27.24;100.00
55490;BME280;44029;52.956;4.772;2023-07-13T09:46:47;101567.34;;;27.69;100.00
55490;BME280;44029;52.956;4.772;2023-07-13T09:49:17;101572.97;;;27.24;100.00
55490;BME280;44029;52.956;4.772;2023-07-13T09:51:43;101574.72;;;27.49;100.00
55490;BME280;44029;52.956;4.772;2023-07-13T09:54:20;101576.63;;;26.61;100.00
55490;BME280;44029;52.956;4.772;2023-07-13T09:56:46;101579.88;;;27.47;100.00
55490;BME280;44029;52.956;4.772;2023-07-13T09:59:23;101585.81;;;27.12;100.00
55490;BME280;44029;52.956;4.772;2023-07-13T10:01:49;101581.72;;;26.89;100.00
55490;BME280;44029;52.956;4.772;2023-07-13T10:04:19;101585.63;;;27.51;100.00
55490;BME280;44029;52.956;4.772;2023-07-13T10:06:46;101579.91;;;27.05;100.00
55490;BME280;44029;52.956;4.772;2023-07-13T10:09:16;101582.66;;;27.14;100.00
55490;BME280;44029;52.956;4.772;2023-07-13T10:11:43;101590.16;;;26.38;100.00
55490;BME280;44029;52.956;4.772;2023-07-13T10:16:37;101590.84;;;26.56;100.00
55490;BME280;44029;52.956;4.772;2023-07-13T10:19:17;101602.47;;;27.17;100.00
55490;BME280;44029;52.956;4.772;2023-07-13T10:22:29;101608.91;;;27.18;100.00
55490;BME280;44029;52.956;4.772;2023-07-13T10:24:57;101609.28;;;26.74;100.00
55490;BME280;44029;52.956;4.772;2023-07-13T10:27:35;101609.53;;;27.24;100.00
55490;BME280;44029;52.956;4.772;2023-07-13T10:32:33;101614.13;;;26.35;100.00
55490;BME280;44029;52.956;4.772;2023-07-13T10:34:59;101607.69;;;26.35;100.00
55490;BME280;44029;52.956;4.772;2023-07-13T10:37:29;101607.97;;;26.72;100.00
55490;BME280;44029;52.956;4.772;2023-07-13T10:39:56;101605.03;;;26.38;100.00
55490;BME280;44029;52.956;4.772;2023-07-13T10:42:36;101613.97;;;26.91;100.00
55490;BME280;44029;52.956;4.772;2023-07-13T10:45:24;101619.50;;;26.49;100.00
55490;BME280;44029;52.956;4.772;2023-07-13T10:47:52;101621.09;;;26.59;100.00
55490;BME280;44029;52.956;4.772;2023-07-13T10:50:27;101622.47;;;26.83;100.00
55490;BME280;44029;52.956;4.772;2023-07-13T10:52:55;101639.47;;;26.27;100.00
55490;BME280;44029;52.956;4.772;2023-07-13T10:55:36;101637.75;;;26.43;100.00
55490;BME280;44029;52.956;4.772;2023-07-13T10:59:00;101644.31;;;26.47;100.00
55490;BME280;44029;52.956;4.772;2023-07-13T11:04:00;101645.00;;;26.44;100.00
55490;BME280;44029;52.956;4.772;2023-07-13T11:08:57;101649.97;;;26.38;100.00
55490;BME280;44029;52.956;4.772;2023-07-13T11:18:47;101663.03;;;26.73;100.00
55490;BME280;44029;52.956;4.772;2023-07-13T11:21:16;101667.75;;;26.60;100.00
55490;BME280;44029;52.956;4.772;2023-07-13T11:23:43;101671.16;;;26.36;100.00
55490;BME280;44029;52.956;4.772;2023-07-13T11:31:52;101673.72;;;26.79;100.00
55490;BME280;44029;52.956;4.772;2023-07-13T11:34:27;101665.97;;;26.47;100.00
55490;BME280;44029;52.956;4.772;2023-07-13T11:36:54;101671.22;;;26.18;100.00
55490;BME280;44029;52.956;4.772;2023-07-13T11:39:37;101670.25;;;26.53;100.00
55490;BME280;44029;52.956;4.772;2023-07-13T11:42:06;101673.34;;;26.30;100.00
55490;BME280;44029;52.956;4.772;2023-07-13T11:44:34;101675.78;;;25.93;100.00
55490;BME280;44029;52.956;4.772;2023-07-13T11:47:14;101684.63;;;26.13;100.00
55490;BME280;44029;52.956;4.772;2023-07-13T11:49:49;101680.13;;;26.59;100.00
55490;BME280;44029;52.956;4.772;2023-07-13T11:52:18;101681.63;;;26.27;100.00
55490;BME280;44029;52.956;4.772;2023-07-13T11:54:53;101683.53;;;26.73;100.00
55490;BME280;44029;52.956;4.772;2023-07-13T11:57:30;101689.88;;;26.23;100.00
55490;BME280;44029;52.956;4.772;2023-07-13T12:00:00;101691.22;;;26.55;100.00
55490;BME280;44029;52.956;4.772;2023-07-13T12:02:31;101686.59;;;26.89;100.00
55490;BME280;44029;52.956;4.772;2023-07-13T12:05:00;101684.84;;;26.37;100.00
55490;BME280;44029;52.956;4.772;2023-07-13T12:07:32;101682.63;;;26.60;100.00
55490;BME280;44029;52.956;4.772;2023-07-13T12:10:03;101690.94;;;26.10;100.00
55490;BME280;44029;52.956;4.772;2023-07-13T12:12:36;101687.75;;;26.20;100.00
55490;BME280;44029;52.956;4.772;2023-07-13T12:15:06;101690.75;;;26.45;100.00
55490;BME280;44029;52.956;4.772;2023-07-13T12:17:34;101688.97;;;26.40;100.00
55490;BME280;44029;52.956;4.772;2023-07-13T12:20:00;101693.91;;;26.04;100.00
55490;BME280;44029;52.956;4.772;2023-07-13T12:22:27;101691.97;;;25.88;100.00
55490;BME280;44029;52.956;4.772;2023-07-13T12:24:53;101694.44;;;25.80;100.00
55490;BME280;44029;52.956;4.772;2023-07-13T12:27:24;101699.22;;;25.89;100.00
55490;BME280;44029;52.956;4.772;2023-07-13T12:30:29;101702.97;;;26.19;100.00
55490;BME280;44029;52.956;4.772;2023-07-13T12:33:06;101695.88;;;26.04;100.00
55490;BME280;44029;52.956;4.772;2023-07-13T12:35:40;101700.97;;;26.19;100.00
55490;BME280;44029;52.956;4.772;2023-07-13T12:38:09;101703.97;;;26.06;100.00
55490;BME280;44029;52.956;4.772;2023-07-13T12:40:35;101698.50;;;26.18;100.00
55490;BME280;44029;52.956;4.772;2023-07-13T12:43:02;101700.56;;;26.38;100.00
55490;BME280;44029;52.956;4.772;2023-07-13T12:45:30;101704.19;;;25.83;100.00
55490;BME280;44029;52.956;4.772;2023-07-13T12:48:04;101701.34;;;25.92;100.00
55490;BME280;44029;52.956;4.772;2023-07-13T12:50:39;101705.47;;;26.03;100.00
55490;BME280;44029;52.956;4.772;2023-07-13T12:53:12;101695.94;;;25.95;100.00
55490;BME280;44029;52.956;4.772;2023-07-13T12:55:51;101696.16;;;26.20;100.00
55490;BME280;44029;52.956;4.772;2023-07-13T13:00:54;101701.16;;;26.06;100.00
55490;BME280;44029;52.956;4.772;2023-07-13T13:03:34;101693.59;;;25.89;100.00
55490;BME280;44029;52.956;4.772;2023-07-13T13:08:46;101697.44;;;25.75;100.00
55490;BME280;44029;52.956;4.772;2023-07-13T13:11:11;101704.34;;;25.17;100.00
55490;BME280;44029;52.956;4.772;2023-07-13T13:13:37;101703.03;;;25.66;100.00
55490;BME280;44029;52.956;4.772;2023-07-13T13:18:39;101705.03;;;25.66;100.00
55490;BME280;44029;52.956;4.772;2023-07-13T13:21:05;101704.38;;;25.60;100.00
55490;BME280;44029;52.956;4.772;2023-07-13T13:23:31;101711.09;;;25.85;100.00
55490;BME280;44029;52.956;4.772;2023-07-13T13:25:57;101699.75;;;25.64;100.00